createdAt,value
2023-01-03T00:00:47.409Z,17.10
2023-01-03T00:03:25.992Z,11.82
2023-01-03T00:05:54.057Z,13.93
2023-01-03T00:08:28.493Z,16.92
2023-01-03T00:10:55.280Z,6.95
2023-01-03T00:13:23.272Z,11.25
2023-01-03T00:15:57.281Z,17.73
2023-01-03T00:18:27.393Z,20.98
2023-01-03T00:20:54.190Z,8.23
2023-01-03T00:23:25.457Z,9.77
2023-01-03T00:26:10.602Z,11.20
2023-01-03T00:28:40.978Z,9.73
2023-01-03T00:31:11.599Z,13.05
2023-01-03T00:33:40.337Z,13.05
2023-01-03T00:36:10.837Z,13.02
2023-01-03T00:38:38.412Z,18.20
2023-01-03T00:41:15.283Z,14.27
2023-01-03T00:43:44.200Z,15.70
2023-01-03T00:46:12.521Z,12.60
2023-01-03T00:48:39.842Z,18.67
2023-01-03T00:51:13.517Z,10.93
2023-01-03T00:53:41.073Z,13.00
2023-01-03T00:56:10.664Z,11.68
2023-01-03T00:58:37.971Z,14.60
2023-01-03T01:01:16.472Z,13.90
2023-01-03T01:03:46.675Z,10.75
2023-01-03T01:06:35.038Z,12.48
2023-01-03T01:09:04.398Z,10.38
2023-01-03T01:11:31.352Z,13.13
2023-01-03T01:13:58.730Z,12.68
2023-01-03T01:16:28.759Z,12.98
2023-01-03T01:18:56.449Z,12.38
2023-01-03T01:21:26.785Z,21.67
2023-01-03T01:23:53.683Z,8.73
2023-01-03T01:26:23.642Z,12.48
2023-01-03T01:28:51.784Z,11.20
2023-01-03T01:31:21.182Z,11.60
2023-01-03T01:33:48.453Z,24.02
2023-01-03T01:36:22.750Z,19.10
2023-01-03T01:41:39.978Z,11.30
2023-01-03T01:44:26.177Z,11.45
2023-01-03T01:46:53.170Z,10.35
2023-01-03T01:49:25.879Z,10.18
2023-01-03T01:51:52.680Z,11.20
2023-01-03T01:54:20.327Z,9.13
2023-01-03T01:56:50.314Z,14.40
2023-01-03T01:59:17.256Z,13.77
2023-01-03T02:01:46.093Z,10.38
2023-01-03T02:04:30.294Z,9.90
2023-01-03T02:07:05.028Z,10.60
2023-01-03T02:09:34.283Z,9.77
2023-01-03T02:12:41.283Z,11.10
2023-01-03T02:15:21.804Z,13.30
2023-01-03T02:18:06.638Z,10.38
2023-01-03T02:20:56.421Z,10.45
2023-01-03T02:23:29.321Z,12.32
2023-01-03T02:26:34.932Z,10.55
2023-01-03T02:29:33.399Z,14.30
2023-01-03T02:32:36.949Z,12.20
2023-01-03T02:35:17.429Z,11.10
2023-01-03T02:38:02.137Z,23.35
2023-01-03T02:40:43.085Z,18.05
2023-01-03T02:43:26.494Z,11.63
2023-01-03T02:46:00.252Z,29.42
2023-01-03T02:48:39.092Z,10.73
2023-01-03T02:51:15.612Z,17.33
2023-01-03T02:53:47.631Z,13.07
2023-01-03T02:56:25.594Z,14.20
2023-01-03T02:58:58.269Z,14.32
2023-01-03T03:01:26.450Z,14.60
2023-01-03T03:03:54.607Z,29.73
2023-01-03T03:06:46.296Z,12.95
2023-01-03T03:09:13.224Z,21.70
2023-01-03T03:12:00.886Z,21.15
2023-01-03T03:14:38.828Z,19.83
2023-01-03T03:17:17.573Z,20.10
2023-01-03T03:20:06.496Z,17.55
2023-01-03T03:23:08.127Z,20.75
2023-01-03T03:25:47.924Z,14.10
2023-01-03T03:28:35.876Z,11.73
2023-01-03T03:31:06.790Z,22.15
2023-01-03T03:33:47.659Z,19.98
2023-01-03T03:36:17.295Z,14.90
2023-01-03T03:38:45.271Z,27.35
2023-01-03T03:41:57.065Z,18.90
2023-01-03T03:45:01.052Z,15.90
2023-01-03T03:47:59.074Z,17.73
2023-01-03T03:50:36.079Z,25.45
2023-01-03T03:53:06.934Z,20.45
2023-01-03T03:55:39.596Z,18.42
2023-01-03T03:58:15.214Z,12.80
2023-01-03T04:00:44.076Z,17.40
2023-01-03T04:03:12.452Z,19.85
2023-01-03T04:05:44.568Z,17.77
2023-01-03T04:08:11.510Z,21.00
2023-01-03T04:10:38.642Z,16.48
2023-01-03T04:13:05.992Z,20.30
2023-01-03T04:15:32.821Z,15.80
2023-01-03T04:18:02.436Z,13.65
2023-01-03T04:20:29.754Z,16.98
2023-01-03T04:22:56.885Z,17.48
2023-01-03T04:25:24.045Z,14.13
2023-01-03T04:27:50.968Z,21.27
2023-01-03T04:30:17.979Z,10.48
2023-01-03T04:32:44.761Z,17.55
2023-01-03T04:35:11.558Z,14.93
2023-01-03T04:37:38.392Z,16.23
2023-01-03T04:40:05.683Z,17.73
2023-01-03T04:42:55.869Z,13.52
2023-01-03T04:45:22.708Z,15.80
2023-01-03T04:48:15.065Z,18.92
2023-01-03T04:51:01.209Z,19.92
2023-01-03T04:53:28.202Z,23.42
2023-01-03T04:55:58.776Z,21.08
2023-01-03T04:58:25.768Z,21.20
2023-01-03T05:00:52.947Z,23.98
2023-01-03T05:03:25.632Z,20.20
2023-01-03T05:06:02.284Z,17.63
2023-01-03T05:08:29.126Z,18.88
2023-01-03T05:10:55.984Z,16.23
2023-01-03T05:13:23.317Z,18.42
2023-01-03T05:15:50.343Z,19.55
2023-01-03T05:18:17.289Z,21.23
2023-01-03T05:21:03.583Z,23.48
2023-01-03T05:23:48.869Z,27.48
2023-01-03T05:26:20.874Z,20.83
2023-01-03T05:28:52.575Z,23.02
2023-01-03T05:31:20.265Z,19.05
2023-01-03T05:33:47.149Z,21.63
2023-01-03T05:36:16.156Z,17.58
2023-01-03T05:38:43.393Z,20.80
2023-01-03T05:41:12.669Z,21.13
2023-01-03T05:43:39.559Z,20.08
2023-01-03T05:46:06.381Z,21.30
2023-01-03T05:48:33.266Z,25.60
2023-01-03T05:51:07.369Z,19.50
2023-01-03T05:53:37.192Z,17.92
2023-01-03T05:56:11.017Z,19.08
2023-01-03T05:59:04.214Z,22.83
2023-01-03T06:04:21.416Z,23.40
2023-01-03T06:06:51.078Z,19.08
2023-01-03T06:10:07.079Z,20.55
2023-01-03T06:12:34.999Z,26.15
2023-01-03T06:15:08.177Z,18.60
2023-01-03T06:17:53.572Z,26.85
2023-01-03T06:20:20.967Z,31.40
2023-01-03T06:22:55.232Z,27.38
2023-01-03T06:27:49.296Z,23.13
2023-01-03T06:30:22.126Z,19.92
2023-01-03T06:32:52.024Z,22.40
2023-01-03T06:35:26.208Z,31.67
2023-01-03T06:40:19.658Z,24.20
2023-01-03T06:42:46.481Z,32.00
2023-01-03T06:45:32.884Z,34.33
2023-01-03T06:48:23.309Z,55.92
2023-01-03T06:51:09.099Z,30.90
2023-01-03T06:53:41.216Z,17.15
2023-01-03T06:56:08.901Z,22.30
2023-01-03T06:58:36.400Z,25.00
2023-01-03T07:01:05.047Z,32.70
2023-01-03T07:03:32.620Z,23.10
2023-01-03T07:06:04.405Z,20.17
2023-01-03T07:08:31.240Z,18.60
2023-01-03T07:10:58.023Z,19.40
2023-01-03T07:13:43.493Z,51.15
2023-01-03T07:16:22.868Z,29.77
2023-01-03T07:18:55.060Z,24.17
2023-01-03T07:21:26.883Z,21.80
2023-01-03T07:23:55.084Z,51.05
2023-01-03T07:26:24.336Z,51.30
2023-01-03T07:28:52.145Z,61.90
2023-01-03T07:31:19.203Z,36.60
2023-01-03T07:33:46.276Z,32.83
2023-01-03T07:36:15.185Z,29.25
2023-01-03T07:38:44.000Z,98.85
2023-01-03T07:41:12.242Z,51.38
2023-01-03T07:43:41.895Z,64.80
2023-01-03T07:46:13.450Z,27.40
2023-01-03T07:48:43.887Z,27.30
2023-01-03T07:51:12.560Z,22.23
2023-01-03T07:53:40.516Z,51.17
2023-01-03T07:56:13.854Z,36.40
2023-01-03T07:58:44.787Z,70.73
2023-01-03T08:01:14.774Z,52.72
2023-01-03T08:03:42.717Z,36.58
2023-01-03T08:06:12.886Z,36.58
2023-01-03T08:08:40.656Z,44.00
2023-01-03T08:11:33.528Z,36.97
2023-01-03T08:14:00.656Z,31.08
2023-01-03T08:16:27.597Z,44.75
2023-01-03T08:18:54.994Z,32.40
2023-01-03T08:21:21.834Z,51.08
2023-01-03T08:23:57.143Z,34.95
2023-01-03T08:26:24.028Z,52.58
2023-01-03T08:28:51.981Z,42.03
2023-01-03T08:31:22.600Z,53.03
2023-01-03T08:33:57.935Z,52.80
2023-01-03T08:36:28.482Z,45.38
2023-01-03T08:39:06.496Z,50.88
2023-01-03T08:41:38.222Z,44.72
2023-01-03T08:44:08.784Z,54.75
2023-01-03T08:47:08.144Z,51.65
2023-01-03T08:49:35.503Z,53.40
2023-01-03T08:52:02.392Z,51.70
2023-01-03T08:54:29.198Z,43.30
2023-01-03T08:56:56.155Z,43.97
2023-01-03T08:59:23.002Z,54.97
2023-01-03T09:01:50.029Z,36.33
2023-01-03T09:04:16.976Z,45.15
2023-01-03T09:06:43.908Z,49.38
2023-01-03T09:09:10.777Z,43.75
2023-01-03T09:11:37.595Z,34.70
2023-01-03T09:14:04.595Z,41.60
2023-01-03T09:16:31.491Z,51.88
2023-01-03T09:19:02.504Z,37.58
2023-01-03T09:21:32.055Z,46.97
2023-01-03T09:24:14.096Z,42.28
2023-01-03T09:26:41.047Z,25.27
2023-01-03T09:29:08.192Z,49.38
2023-01-03T09:31:35.380Z,39.03
2023-01-03T09:34:04.653Z,34.97
2023-01-03T09:36:32.238Z,43.45
2023-01-03T09:38:59.103Z,34.40
2023-01-03T09:41:27.267Z,36.70
2023-01-03T09:44:02.214Z,35.95
2023-01-03T09:46:30.700Z,42.67
2023-01-03T09:48:58.741Z,35.70
2023-01-03T09:51:53.152Z,48.33
2023-01-03T09:54:51.206Z,37.92
2023-01-03T09:57:54.556Z,38.33
2023-01-03T10:00:40.121Z,42.90
2023-01-03T10:03:51.865Z,42.72
2023-01-03T10:06:31.535Z,42.47
2023-01-03T10:09:25.507Z,41.53
2023-01-03T10:12:04.284Z,52.95
2023-01-03T10:15:03.337Z,43.53
2023-01-03T10:17:51.484Z,49.67
2023-01-03T10:20:33.187Z,47.63
2023-01-03T10:23:06.550Z,51.80
2023-01-03T10:25:33.602Z,55.05
2023-01-03T10:28:07.004Z,48.25
2023-01-03T10:31:07.801Z,51.83
2023-01-03T10:33:39.259Z,53.22
2023-01-03T10:36:07.961Z,48.55
2023-01-03T10:38:43.514Z,51.72
2023-01-03T10:41:31.289Z,60.05
2023-01-03T10:44:03.518Z,49.50
2023-01-03T10:46:31.144Z,56.78
2023-01-03T10:49:31.106Z,55.83
2023-01-03T10:51:58.314Z,52.85
2023-01-03T10:54:31.098Z,46.42
2023-01-03T10:56:58.477Z,45.30
2023-01-03T10:59:30.453Z,40.50
2023-01-03T11:02:09.373Z,37.15
2023-01-03T11:04:37.862Z,40.78
2023-01-03T11:07:13.615Z,46.65
2023-01-03T11:13:34.728Z,37.15
2023-01-03T11:16:03.953Z,40.00
2023-01-03T11:18:31.587Z,36.20
2023-01-03T11:21:25.691Z,53.63
2023-01-03T11:24:35.550Z,34.70
2023-01-03T11:27:23.746Z,40.53
2023-01-03T11:29:56.359Z,32.00
2023-01-03T11:36:20.821Z,32.83
2023-01-03T11:39:45.155Z,49.63
2023-01-03T11:42:32.122Z,59.17
2023-01-03T11:45:07.976Z,30.95
2023-01-03T11:47:55.657Z,39.70
2023-01-03T11:50:37.349Z,27.35
2023-01-03T11:53:21.180Z,32.55
2023-01-03T11:56:14.851Z,21.20
2023-01-03T11:58:47.914Z,27.30
2023-01-03T12:01:41.904Z,27.55
2023-01-03T12:04:25.960Z,24.95
2023-01-03T12:10:14.368Z,18.80
2023-01-03T12:13:05.395Z,18.20
2023-01-03T12:15:57.304Z,19.85
2023-01-03T12:18:39.220Z,24.45
2023-01-03T12:21:26.256Z,20.67
2023-01-03T12:24:02.545Z,18.50
2023-01-03T12:26:30.965Z,22.58
2023-01-03T12:29:09.804Z,18.23
2023-01-03T12:31:46.476Z,24.65
2023-01-03T12:34:31.913Z,19.85
2023-01-03T12:37:24.344Z,17.63
2023-01-03T12:40:01.480Z,20.50
2023-01-03T12:43:20.006Z,13.35
2023-01-03T12:46:13.210Z,14.55
2023-01-03T12:48:43.262Z,13.35
2023-01-03T12:51:10.275Z,15.63
2023-01-03T12:53:43.225Z,20.45
2023-01-03T12:56:36.026Z,20.70
2023-01-03T12:59:20.967Z,22.60
2023-01-03T13:01:54.095Z,15.65
2023-01-03T13:04:28.933Z,20.27
2023-01-03T13:07:17.280Z,16.92
2023-01-03T13:09:58.891Z,19.77
2023-01-03T13:12:35.357Z,19.60
2023-01-03T13:15:15.123Z,16.38
2023-01-03T13:17:48.901Z,20.92
2023-01-03T13:20:36.401Z,23.80
2023-01-03T13:23:21.353Z,14.85
2023-01-03T13:26:16.952Z,16.63
2023-01-03T13:28:43.799Z,28.55
2023-01-03T13:31:37.289Z,14.43
2023-01-03T13:34:39.848Z,20.00
2023-01-03T13:37:06.886Z,15.98
2023-01-03T13:39:50.936Z,14.27
2023-01-03T13:42:22.288Z,19.02
2023-01-03T13:44:50.649Z,14.60
2023-01-03T13:47:42.464Z,10.52
2023-01-03T13:50:37.599Z,14.13
2023-01-03T13:53:12.428Z,18.50
2023-01-03T13:55:57.481Z,13.57
2023-01-03T13:58:53.822Z,14.05
2023-01-03T14:01:53.249Z,17.63
2023-01-03T14:04:32.705Z,13.50
2023-01-03T14:10:17.910Z,10.57
2023-01-03T14:12:56.769Z,20.67
2023-01-03T14:15:26.963Z,14.10
2023-01-03T14:18:02.937Z,17.98
2023-01-03T14:20:35.223Z,15.73
2023-01-03T14:23:31.763Z,12.60
2023-01-03T14:25:54.463Z,13.23
2023-01-03T14:29:03.145Z,9.70
2023-01-03T14:31:53.588Z,17.88
2023-01-03T14:34:41.156Z,15.68
2023-01-03T14:37:24.927Z,14.93
2023-01-03T14:40:26.918Z,14.68
2023-01-03T14:42:54.694Z,13.63
2023-01-03T14:45:24.324Z,12.55
2023-01-03T14:47:55.256Z,11.80
2023-01-03T14:50:27.055Z,10.68
2023-01-03T14:53:01.530Z,14.05
2023-01-03T14:55:35.084Z,14.52
2023-01-03T14:58:24.949Z,10.75
2023-01-03T15:00:53.702Z,11.68
2023-01-03T15:03:21.103Z,14.10
2023-01-03T15:09:19.582Z,11.48
2023-01-03T15:14:42.013Z,20.10
2023-01-03T15:19:38.861Z,12.57
2023-01-03T15:22:24.277Z,13.15
2023-01-03T15:25:09.519Z,11.77
2023-01-03T15:27:44.694Z,9.98
2023-01-03T15:30:15.507Z,10.52
2023-01-03T15:33:05.105Z,12.18
2023-01-03T15:35:42.958Z,11.88
2023-01-03T15:38:44.605Z,9.25
2023-01-03T15:41:45.930Z,7.47
2023-01-03T15:44:22.055Z,14.15
2023-01-03T15:46:50.420Z,11.25
2023-01-03T15:49:23.234Z,10.07
2023-01-03T15:51:57.823Z,11.45
2023-01-03T15:57:35.042Z,13.68
2023-01-03T16:00:04.393Z,9.40
2023-01-03T16:02:32.052Z,13.18
2023-01-03T16:05:04.150Z,9.75
2023-01-03T16:07:46.016Z,10.60
2023-01-03T16:10:39.157Z,10.10
2023-01-03T16:13:12.168Z,11.00
2023-01-03T16:15:43.605Z,11.10
2023-01-03T16:18:21.298Z,8.43
2023-01-03T16:20:48.469Z,12.80
2023-01-03T16:23:33.617Z,13.40
2023-01-03T16:26:01.302Z,10.50
2023-01-03T16:28:28.572Z,10.40
2023-01-03T16:31:12.058Z,9.25
2023-01-03T16:33:40.515Z,12.20
2023-01-03T16:36:21.763Z,10.50
2023-01-03T16:38:48.818Z,6.43
2023-01-03T16:41:16.023Z,11.13
2023-01-03T16:43:42.996Z,8.50
2023-01-03T16:46:11.634Z,12.60
2023-01-03T16:48:44.038Z,13.82
2023-01-03T16:51:21.669Z,13.43
2023-01-03T16:53:49.127Z,7.75
2023-01-03T16:56:16.032Z,12.70
2023-01-03T16:58:43.063Z,5.63
2023-01-03T17:01:10.990Z,7.47
2023-01-03T17:03:41.851Z,8.63
2023-01-03T17:06:37.630Z,9.18
2023-01-03T17:09:22.526Z,7.40
2023-01-03T17:11:49.575Z,7.78
2023-01-03T17:14:22.056Z,8.25
2023-01-03T17:20:07.965Z,6.63
2023-01-03T17:22:35.124Z,12.40
2023-01-03T17:25:02.120Z,8.60
2023-01-03T17:27:33.179Z,10.30
2023-01-03T17:30:03.307Z,9.35
2023-01-03T17:32:37.184Z,7.65
2023-01-03T17:35:05.043Z,14.27
2023-01-03T17:37:45.411Z,8.07
2023-01-03T17:40:33.139Z,10.75
2023-01-03T17:43:02.862Z,9.73
2023-01-03T17:45:48.891Z,9.43
2023-01-03T17:48:34.467Z,13.00
2023-01-03T17:51:02.215Z,9.52
2023-01-03T17:53:30.347Z,9.10
2023-01-03T17:55:57.455Z,9.10
2023-01-03T17:58:59.158Z,7.07
2023-01-03T18:01:26.343Z,15.10
2023-01-03T18:03:53.489Z,7.18
2023-01-03T18:06:24.175Z,13.38
2023-01-03T18:08:52.668Z,9.07
2023-01-03T18:11:22.071Z,6.43
2023-01-03T18:13:49.641Z,9.57
2023-01-03T18:16:19.768Z,14.43
2023-01-03T18:18:48.056Z,11.05
2023-01-03T18:21:36.402Z,8.20
2023-01-03T18:24:19.743Z,7.55
2023-01-03T18:26:50.401Z,3.92
2023-01-03T18:31:52.196Z,12.35
2023-01-03T18:34:19.146Z,15.23
2023-01-03T18:36:51.822Z,6.93
2023-01-03T18:39:29.163Z,6.95
2023-01-03T18:42:20.191Z,4.38
2023-01-03T18:44:47.123Z,9.52
2023-01-03T18:47:14.999Z,4.70
2023-01-03T18:49:41.999Z,6.60
2023-01-03T18:52:27.691Z,8.13
2023-01-03T18:54:54.686Z,6.82
2023-01-03T18:57:23.238Z,9.98
2023-01-03T18:59:50.484Z,4.35
2023-01-03T19:02:20.664Z,9.02
2023-01-03T19:04:51.633Z,6.70
2023-01-03T19:07:33.731Z,12.00
2023-01-03T19:13:07.456Z,4.78
2023-01-03T19:15:46.430Z,3.90
2023-01-03T19:18:13.507Z,5.10
2023-01-03T19:20:40.432Z,6.13
2023-01-03T19:23:07.418Z,4.20
2023-01-03T19:25:34.738Z,2.90
2023-01-03T19:28:08.398Z,14.13
2023-01-03T19:30:42.478Z,4.75
2023-01-03T19:33:16.812Z,12.98
2023-01-03T19:38:21.085Z,1.83
2023-01-03T19:40:52.611Z,2.42
2023-01-03T19:43:25.399Z,7.60
2023-01-03T19:45:52.377Z,5.85
2023-01-03T19:48:43.526Z,3.10
2023-01-03T19:51:14.057Z,7.53
2023-01-03T19:53:45.892Z,11.70
2023-01-03T19:56:28.745Z,8.38
2023-01-03T19:59:03.899Z,4.43
2023-01-03T20:01:50.490Z,8.38
2023-01-03T20:04:20.718Z,10.55
2023-01-03T20:06:53.086Z,6.35
2023-01-03T20:09:20.292Z,2.10
2023-01-03T20:11:54.982Z,6.35
2023-01-03T20:14:23.489Z,2.00
2023-01-03T20:16:54.818Z,7.32
2023-01-03T20:19:21.798Z,2.67
2023-01-03T20:21:50.859Z,10.85
2023-01-03T20:24:24.581Z,6.53
2023-01-03T20:27:07.745Z,2.20
2023-01-03T20:29:34.845Z,6.78
2023-01-03T20:32:11.265Z,7.68
2023-01-03T20:34:38.259Z,10.00
2023-01-03T20:37:07.198Z,3.47
2023-01-03T20:39:36.585Z,7.28
2023-01-03T20:42:07.262Z,2.83
2023-01-03T20:44:34.588Z,7.10
2023-01-03T20:47:11.127Z,1.50
2023-01-03T20:49:51.178Z,3.97
2023-01-03T20:52:30.959Z,9.35
2023-01-03T20:54:57.958Z,5.45
2023-01-03T20:57:24.861Z,6.00
2023-01-03T20:59:51.813Z,2.25
2023-01-03T21:02:25.229Z,2.40
2023-01-03T21:08:11.448Z,8.60
2023-01-03T21:10:41.539Z,9.63
2023-01-03T21:15:53.518Z,8.93
2023-01-03T21:18:22.730Z,4.00
2023-01-03T21:20:49.949Z,12.35
2023-01-03T21:23:36.772Z,5.25
2023-01-03T21:26:03.793Z,8.45
2023-01-03T21:28:30.645Z,1.95
2023-01-03T21:31:05.985Z,4.95
2023-01-03T21:33:32.921Z,6.30
2023-01-03T21:35:59.960Z,9.82
2023-01-03T21:38:26.863Z,6.13
2023-01-03T21:40:54.401Z,4.43
2023-01-03T21:43:56.098Z,9.95
2023-01-03T21:46:24.286Z,1.15
2023-01-03T21:48:51.520Z,8.57
2023-01-03T21:51:30.222Z,7.20
2023-01-03T21:54:02.318Z,2.10
2023-01-03T21:56:29.488Z,1.52
2023-01-03T21:58:56.350Z,10.68
2023-01-03T22:01:24.496Z,1.95
2023-01-03T22:04:10.856Z,5.53
2023-01-03T22:06:38.169Z,8.27
2023-01-03T22:09:06.272Z,10.00
2023-01-03T22:11:33.251Z,7.50
2023-01-03T22:14:00.832Z,10.18
2023-01-03T22:16:27.915Z,8.88
2023-01-03T22:18:55.360Z,3.63
2023-01-03T22:21:22.267Z,7.07
2023-01-03T22:23:49.361Z,3.47
2023-01-03T22:26:29.233Z,6.70
2023-01-03T22:28:59.280Z,4.63
2023-01-03T22:31:26.317Z,6.88
2023-01-03T22:33:53.239Z,7.13
2023-01-03T22:36:20.066Z,7.10
2023-01-03T22:38:47.070Z,4.43
2023-01-03T22:41:16.618Z,4.88
2023-01-03T22:43:44.445Z,5.70
2023-01-03T22:46:14.873Z,7.65
2023-01-03T22:48:42.515Z,5.78
2023-01-03T22:51:12.733Z,1.70
2023-01-03T22:53:42.548Z,6.60
2023-01-03T22:56:12.341Z,7.15
2023-01-03T22:58:39.204Z,8.05
2023-01-03T23:01:20.561Z,5.72
2023-01-03T23:03:51.183Z,2.90
2023-01-03T23:06:20.488Z,5.28
2023-01-03T23:08:54.175Z,5.53
2023-01-03T23:11:41.616Z,9.07
2023-01-03T23:14:11.539Z,7.93
2023-01-03T23:16:46.344Z,1.98
2023-01-03T23:19:18.671Z,3.80
2023-01-03T23:21:46.168Z,9.35
2023-01-03T23:24:15.452Z,3.38
2023-01-03T23:26:42.475Z,4.18
2023-01-03T23:29:14.307Z,3.33
2023-01-03T23:31:42.113Z,4.85
2023-01-03T23:34:10.507Z,8.18
2023-01-03T23:36:37.468Z,3.50
2023-01-03T23:39:05.310Z,5.28
2023-01-03T23:41:32.149Z,6.70
2023-01-03T23:43:58.935Z,9.52
2023-01-03T23:46:25.841Z,4.00
2023-01-03T23:48:57.166Z,5.32
2023-01-03T23:51:24.653Z,9.25
2023-01-03T23:53:52.067Z,1.92
2023-01-03T23:56:21.179Z,3.17
2023-01-03T23:58:48.335Z,7.25
